createdAt,value
2023-07-10T00:01:03.311Z,67.48
2023-07-10T00:03:30.284Z,67.71
2023-07-10T00:06:00.805Z,65.99
2023-07-10T00:08:28.114Z,65.02
2023-07-10T00:10:55.133Z,64.13
2023-07-10T00:13:23.287Z,66.15
2023-07-10T00:15:52.057Z,65.55
2023-07-10T00:18:22.034Z,66.00
2023-07-10T00:20:54.636Z,66.92
2023-07-10T00:23:21.600Z,66.75
2023-07-10T00:25:48.710Z,66.49
2023-07-10T00:28:20.576Z,66.46
2023-07-10T00:30:49.995Z,66.17
2023-07-10T00:33:20.635Z,65.47
2023-07-10T00:35:48.856Z,66.09
2023-07-10T00:38:30.585Z,66.36
2023-07-10T00:41:06.846Z,66.08
2023-07-10T00:43:39.043Z,67.14
2023-07-10T00:46:18.552Z,66.00
2023-07-10T00:48:52.124Z,65.33
2023-07-10T00:51:27.706Z,64.89
2023-07-10T00:53:56.705Z,65.30
2023-07-10T00:56:24.642Z,65.57
2023-07-10T00:58:51.731Z,65.95
2023-07-10T01:01:21.114Z,65.99
2023-07-10T01:03:51.145Z,66.98
2023-07-10T01:06:20.439Z,68.30
2023-07-10T01:09:04.136Z,68.87
2023-07-10T01:11:35.908Z,68.40
2023-07-10T01:14:05.862Z,68.32
2023-07-10T01:16:33.950Z,68.20
2023-07-10T01:19:00.916Z,68.60
2023-07-10T01:21:34.201Z,69.62
2023-07-10T01:24:05.881Z,70.44
2023-07-10T01:26:36.313Z,70.56
2023-07-10T01:29:03.582Z,71.26
2023-07-10T01:31:31.789Z,71.99
2023-07-10T01:34:03.090Z,71.24
2023-07-10T01:36:37.147Z,69.96
2023-07-10T01:39:27.871Z,68.96
2023-07-10T01:41:54.521Z,67.85
2023-07-10T01:44:27.367Z,66.87
2023-07-10T01:46:56.897Z,68.28
2023-07-10T01:49:58.704Z,68.07
2023-07-10T01:52:26.397Z,68.70
2023-07-10T01:54:56.760Z,67.95
2023-07-10T01:57:25.390Z,69.95
2023-07-10T01:59:53.772Z,68.87
2023-07-10T02:02:21.770Z,69.86
2023-07-10T02:04:49.240Z,68.99
2023-07-10T02:07:16.179Z,68.68
2023-07-10T02:09:42.770Z,68.67
2023-07-10T02:12:10.509Z,68.40
2023-07-10T02:14:37.049Z,68.35
2023-07-10T02:17:04.190Z,70.28
2023-07-10T02:19:30.966Z,69.90
2023-07-10T02:21:59.023Z,69.31
2023-07-10T02:24:26.446Z,69.52
2023-07-10T02:26:53.853Z,68.97
2023-07-10T02:29:21.487Z,68.83
2023-07-10T02:31:51.119Z,68.73
2023-07-10T02:34:17.883Z,70.27
2023-07-10T02:36:45.805Z,70.68
2023-07-10T02:39:13.099Z,70.95
2023-07-10T02:41:40.453Z,70.28
2023-07-10T02:44:07.501Z,70.69
2023-07-10T02:46:34.210Z,72.00
2023-07-10T02:49:01.398Z,71.67
2023-07-10T02:51:30.436Z,70.96
2023-07-10T02:53:57.043Z,70.80
2023-07-10T02:56:23.712Z,70.25
2023-07-10T02:58:53.623Z,70.59
2023-07-10T03:01:27.724Z,72.17
2023-07-10T03:03:55.438Z,71.89
2023-07-10T03:06:24.728Z,71.99
2023-07-10T03:08:51.706Z,71.74
2023-07-10T03:11:18.485Z,72.57
2023-07-10T03:13:45.526Z,73.43
2023-07-10T03:16:14.726Z,73.46
2023-07-10T03:18:41.760Z,73.02
2023-07-10T03:21:10.862Z,73.30
2023-07-10T03:23:38.538Z,72.98
2023-07-10T03:26:06.425Z,71.83
2023-07-10T03:28:38.354Z,73.76
2023-07-10T03:31:08.252Z,74.20
2023-07-10T03:33:36.123Z,73.89
2023-07-10T03:36:10.848Z,74.42
2023-07-10T03:38:37.739Z,74.03
2023-07-10T03:41:04.437Z,74.70
2023-07-10T03:43:31.121Z,74.60
2023-07-10T03:45:58.058Z,75.20
2023-07-10T03:48:26.255Z,74.18
2023-07-10T03:50:52.787Z,74.91
2023-07-10T03:53:20.060Z,74.26
2023-07-10T03:55:54.193Z,73.42
2023-07-10T03:58:29.840Z,73.18
2023-07-10T04:01:01.422Z,73.34
2023-07-10T04:03:34.677Z,74.98
2023-07-10T04:06:06.991Z,75.31
2023-07-10T04:08:39.409Z,76.59
2023-07-10T04:11:20.768Z,75.70
2023-07-10T04:13:49.594Z,75.60
2023-07-10T04:16:25.584Z,77.21
2023-07-10T04:18:54.016Z,77.71
2023-07-10T04:21:23.624Z,77.03
2023-07-10T04:23:50.776Z,76.74
2023-07-10T04:26:21.635Z,77.10
2023-07-10T04:28:51.209Z,76.36
2023-07-10T04:31:19.146Z,76.34
2023-07-10T04:33:46.821Z,75.35
2023-07-10T04:36:14.251Z,74.55
2023-07-10T04:38:40.940Z,74.60
2023-07-10T04:41:11.577Z,74.48
2023-07-10T04:43:38.720Z,73.56
2023-07-10T04:46:11.307Z,72.70
2023-07-10T04:48:38.109Z,71.76
2023-07-10T04:51:09.142Z,71.24
2023-07-10T04:53:35.960Z,71.19
2023-07-10T04:56:08.195Z,70.45
2023-07-10T04:58:51.151Z,69.96
2023-07-10T05:01:19.756Z,72.27
2023-07-10T05:03:47.793Z,72.31
2023-07-10T05:06:15.227Z,70.44
2023-07-10T05:08:42.096Z,69.73
2023-07-10T05:11:09.191Z,69.49
2023-07-10T05:13:35.946Z,69.75
2023-07-10T05:16:03.437Z,70.10
2023-07-10T05:18:31.299Z,70.64
2023-07-10T05:21:00.973Z,70.78
2023-07-10T05:23:29.129Z,69.17
2023-07-10T05:26:05.355Z,66.75
2023-07-10T05:28:32.589Z,66.07
2023-07-10T05:31:03.249Z,65.60
2023-07-10T05:33:31.495Z,64.26
2023-07-10T05:36:01.237Z,64.42
2023-07-10T05:38:31.737Z,63.91
2023-07-10T05:41:01.540Z,64.21
2023-07-10T05:43:33.134Z,64.60
2023-07-10T05:46:00.415Z,65.00
2023-07-10T05:48:29.903Z,64.98
2023-07-10T05:50:57.684Z,64.63
2023-07-10T05:53:25.866Z,63.47
2023-07-10T05:55:57.299Z,62.97
2023-07-10T05:58:27.540Z,61.61
2023-07-10T06:00:57.250Z,60.95
2023-07-10T06:03:24.845Z,60.60
2023-07-10T06:06:01.420Z,60.60
2023-07-10T06:08:29.398Z,59.79
2023-07-10T06:10:56.770Z,59.37
2023-07-10T06:13:24.430Z,58.64
2023-07-10T06:15:53.734Z,57.75
2023-07-10T06:18:20.856Z,56.71
2023-07-10T06:21:00.869Z,55.70
2023-07-10T06:23:30.064Z,55.17
2023-07-10T06:25:57.420Z,54.26
2023-07-10T06:28:25.370Z,54.34
2023-07-10T06:31:08.120Z,53.20
2023-07-10T06:33:36.819Z,53.98
2023-07-10T06:36:06.201Z,52.30
2023-07-10T06:38:34.118Z,52.31
2023-07-10T06:41:00.808Z,52.96
2023-07-10T06:43:27.401Z,51.76
2023-07-10T06:45:57.172Z,51.30
2023-07-10T06:48:24.182Z,51.23
2023-07-10T06:50:52.705Z,50.95
2023-07-10T06:56:03.006Z,51.00
2023-07-10T06:58:34.514Z,50.82
2023-07-10T07:01:03.565Z,50.01
2023-07-10T07:03:31.147Z,49.73
2023-07-10T07:05:59.964Z,50.04
2023-07-10T07:08:26.595Z,50.06
2023-07-10T07:10:54.994Z,50.52
2023-07-10T07:13:22.740Z,50.10
2023-07-10T07:15:56.827Z,49.52
2023-07-10T07:18:27.838Z,49.36
2023-07-10T07:20:55.635Z,48.41
2023-07-10T07:23:22.457Z,48.17
2023-07-10T07:25:49.342Z,48.84
2023-07-10T07:28:16.059Z,49.12
2023-07-10T07:30:48.689Z,50.49
2023-07-10T07:33:20.951Z,50.23
2023-07-10T07:35:50.229Z,48.97
2023-07-10T07:38:18.190Z,48.23
2023-07-10T07:40:45.630Z,47.67
2023-07-10T07:43:12.525Z,47.36
2023-07-10T07:45:39.522Z,47.20
2023-07-10T07:48:06.606Z,46.92
2023-07-10T07:50:33.183Z,46.32
2023-07-10T07:53:00.103Z,45.13
2023-07-10T07:55:26.666Z,45.23
2023-07-10T07:57:53.523Z,44.28
2023-07-10T08:00:22.089Z,44.67
2023-07-10T08:02:50.721Z,44.74
2023-07-10T08:05:32.924Z,44.45
2023-07-10T08:08:01.772Z,44.19
2023-07-10T08:10:32.329Z,44.16
2023-07-10T08:12:59.116Z,43.21
2023-07-10T08:15:25.602Z,43.20
2023-07-10T08:17:52.216Z,43.31
2023-07-10T08:20:18.859Z,42.96
2023-07-10T08:22:46.027Z,43.08
2023-07-10T08:25:12.976Z,42.63
2023-07-10T08:27:40.481Z,42.87
2023-07-10T08:30:08.165Z,43.56
2023-07-10T08:32:35.386Z,43.65
2023-07-10T08:35:02.975Z,42.61
2023-07-10T08:37:29.735Z,42.36
2023-07-10T08:39:59.270Z,42.41
2023-07-10T08:42:31.611Z,43.31
2023-07-10T08:45:00.664Z,43.35
2023-07-10T08:47:38.658Z,42.02
2023-07-10T08:50:19.781Z,41.73
2023-07-10T08:53:05.316Z,41.38
2023-07-10T08:55:52.372Z,41.41
2023-07-10T08:58:22.802Z,40.41
2023-07-10T09:00:53.786Z,39.50
2023-07-10T09:03:39.907Z,39.45
2023-07-10T09:06:21.653Z,39.75
2023-07-10T09:08:55.354Z,39.35
2023-07-10T09:11:24.305Z,39.16
2023-07-10T09:13:57.339Z,39.26
2023-07-10T09:16:25.215Z,39.88
2023-07-10T09:19:02.761Z,39.85
2023-07-10T09:21:36.204Z,39.07
2023-07-10T09:24:07.031Z,38.94
2023-07-10T09:26:40.761Z,38.99
2023-07-10T09:29:15.636Z,38.61
2023-07-10T09:32:17.969Z,38.73
2023-07-10T09:34:52.695Z,39.96
2023-07-10T09:37:22.240Z,39.48
2023-07-10T09:39:49.686Z,37.72
2023-07-10T09:42:19.965Z,38.23
2023-07-10T09:44:54.348Z,38.58
2023-07-10T09:47:23.023Z,38.56
2023-07-10T09:49:56.222Z,37.74
2023-07-10T09:52:29.195Z,35.08
2023-07-10T09:55:12.730Z,35.39
2023-07-10T09:58:05.842Z,35.89
2023-07-10T10:00:35.653Z,35.46
2023-07-10T10:03:14.893Z,35.01
2023-07-10T10:05:43.782Z,35.83
2023-07-10T10:08:28.727Z,35.33
2023-07-10T10:11:08.866Z,35.13
2023-07-10T10:13:43.417Z,35.55
2023-07-10T10:16:30.123Z,35.01
2023-07-10T10:19:03.315Z,34.48
2023-07-10T10:21:36.682Z,34.51
2023-07-10T10:24:08.771Z,34.46
2023-07-10T10:26:56.775Z,35.22
2023-07-10T10:29:36.144Z,35.31
2023-07-10T10:32:27.606Z,35.03
2023-07-10T10:35:11.156Z,32.90
2023-07-10T10:38:05.050Z,33.57
2023-07-10T10:40:40.843Z,34.25
2023-07-10T10:43:32.880Z,33.49
2023-07-10T10:46:23.479Z,34.38
2023-07-10T10:49:13.388Z,33.69
2023-07-10T10:52:06.063Z,34.53
2023-07-10T10:54:36.772Z,34.20
2023-07-10T10:57:40.443Z,33.87
2023-07-10T11:00:24.332Z,32.62
2023-07-10T11:02:56.669Z,33.29
2023-07-10T11:05:33.606Z,33.12
2023-07-10T11:08:05.416Z,32.71
2023-07-10T11:10:38.872Z,32.65
2023-07-10T11:13:10.375Z,32.22
2023-07-10T11:15:37.041Z,32.32
2023-07-10T11:18:04.716Z,31.93
2023-07-10T11:20:31.611Z,30.87
2023-07-10T11:23:01.621Z,30.46
2023-07-10T11:25:32.714Z,29.61
2023-07-10T11:28:05.341Z,29.46
2023-07-10T11:30:35.051Z,29.43
2023-07-10T11:33:18.031Z,29.86
2023-07-10T11:36:19.258Z,30.21
2023-07-10T11:39:09.060Z,30.31
2023-07-10T11:41:38.459Z,29.83
2023-07-10T11:44:32.495Z,29.90
2023-07-10T11:47:06.627Z,30.34
2023-07-10T11:49:36.664Z,30.22
2023-07-10T11:52:29.828Z,30.52
2023-07-10T11:55:04.094Z,30.92
2023-07-10T11:57:34.631Z,29.98
2023-07-10T12:00:05.143Z,29.06
2023-07-10T12:02:49.949Z,29.41
2023-07-10T12:05:42.566Z,30.92
2023-07-10T12:08:09.232Z,30.72
2023-07-10T12:10:53.808Z,29.61
2023-07-10T12:13:32.875Z,28.03
2023-07-10T12:16:09.765Z,27.82
2023-07-10T12:18:40.064Z,27.42
2023-07-10T12:21:24.301Z,27.12
2023-07-10T12:23:55.564Z,27.68
2023-07-10T12:26:44.407Z,27.62
2023-07-10T12:29:15.492Z,28.21
2023-07-10T12:31:43.558Z,28.63
2023-07-10T12:34:26.947Z,28.92
2023-07-10T12:36:59.618Z,28.11
2023-07-10T12:39:26.913Z,27.94
2023-07-10T12:41:56.392Z,28.37
2023-07-10T12:44:29.148Z,29.46
2023-07-10T12:47:06.336Z,29.07
2023-07-10T12:49:36.195Z,28.18
2023-07-10T12:52:10.036Z,27.96
2023-07-10T12:54:44.315Z,27.10
2023-07-10T12:57:18.130Z,26.93
2023-07-10T12:59:48.045Z,27.17
2023-07-10T13:02:23.880Z,27.57
2023-07-10T13:05:00.312Z,27.98
2023-07-10T13:07:36.649Z,27.71
2023-07-10T13:10:28.761Z,28.50
2023-07-10T13:13:02.056Z,28.82
2023-07-10T13:15:36.056Z,28.86
2023-07-10T13:18:03.208Z,28.82
2023-07-10T13:20:31.419Z,28.26
2023-07-10T13:23:00.471Z,28.06
2023-07-10T13:25:31.662Z,28.39
2023-07-10T13:27:58.280Z,27.83
2023-07-10T13:30:25.497Z,27.33
2023-07-10T13:32:53.527Z,26.89
2023-07-10T13:35:21.659Z,26.62
2023-07-10T13:37:48.219Z,26.67
2023-07-10T13:40:22.578Z,27.08
2023-07-10T13:42:50.182Z,26.67
2023-07-10T13:45:16.802Z,27.13
2023-07-10T13:47:43.544Z,27.50
2023-07-10T13:50:16.096Z,26.31
2023-07-10T13:52:43.274Z,26.62
2023-07-10T13:55:15.441Z,26.50
2023-07-10T13:57:44.280Z,26.43
2023-07-10T14:00:14.625Z,26.58
2023-07-10T14:02:41.487Z,26.92
2023-07-10T14:05:12.990Z,27.16
2023-07-10T14:07:41.331Z,27.25
2023-07-10T14:10:10.307Z,26.56
2023-07-10T14:12:39.171Z,26.82
2023-07-10T14:15:06.223Z,25.51
2023-07-10T14:17:34.911Z,26.23
2023-07-10T14:20:10.622Z,25.62
2023-07-10T14:22:37.117Z,25.88
2023-07-10T14:25:05.407Z,25.70
2023-07-10T14:27:32.488Z,25.68
2023-07-10T14:30:01.375Z,26.64
2023-07-10T14:32:28.420Z,25.05
2023-07-10T14:34:55.067Z,25.17
2023-07-10T14:37:28.452Z,26.25
2023-07-10T14:39:55.293Z,26.49
2023-07-10T14:42:25.190Z,26.84
2023-07-10T14:44:52.527Z,26.87
2023-07-10T14:47:19.717Z,26.22
2023-07-10T14:49:47.814Z,26.96
2023-07-10T14:52:31.756Z,26.73
2023-07-10T14:55:01.341Z,26.71
2023-07-10T14:57:31.014Z,26.30
2023-07-10T14:59:59.665Z,26.58
2023-07-10T15:02:27.631Z,25.62
2023-07-10T15:04:55.326Z,25.77
2023-07-10T15:07:23.215Z,26.05
2023-07-10T15:09:50.793Z,26.32
2023-07-10T15:12:21.091Z,26.55
2023-07-10T15:14:50.939Z,27.23
2023-07-10T15:17:26.449Z,27.20
2023-07-10T15:19:58.389Z,26.46
2023-07-10T15:22:25.037Z,26.67
2023-07-10T15:24:52.708Z,26.96
2023-07-10T15:27:20.885Z,27.36
2023-07-10T15:29:47.475Z,27.77
2023-07-10T15:32:20.498Z,28.19
2023-07-10T15:34:50.105Z,27.80
2023-07-10T15:37:24.437Z,26.89
2023-07-10T15:39:51.377Z,27.17
2023-07-10T15:42:19.848Z,27.26
2023-07-10T15:44:48.018Z,26.96
2023-07-10T15:47:20.172Z,26.95
2023-07-10T15:49:47.229Z,27.00
2023-07-10T15:52:30.724Z,27.10
2023-07-10T15:55:23.508Z,26.49
2023-07-10T15:57:51.863Z,26.93
2023-07-10T16:00:27.840Z,27.04
2023-07-10T16:02:56.617Z,27.83
2023-07-10T16:05:26.437Z,27.45
2023-07-10T16:07:54.979Z,26.77
2023-07-10T16:10:23.718Z,27.09
2023-07-10T16:12:56.229Z,27.25
2023-07-10T16:15:28.239Z,27.46
2023-07-10T16:17:58.862Z,27.31
2023-07-10T16:20:28.533Z,27.18
2023-07-10T16:23:05.666Z,26.83
2023-07-10T16:25:33.781Z,26.93
2023-07-10T16:28:01.431Z,27.30
2023-07-10T16:30:28.666Z,27.49
2023-07-10T16:32:56.788Z,26.85
2023-07-10T16:35:25.649Z,27.36
2023-07-10T16:37:53.728Z,27.28
2023-07-10T16:40:26.511Z,27.28
2023-07-10T16:42:56.163Z,27.49
2023-07-10T16:45:26.345Z,27.49
2023-07-10T16:47:53.374Z,27.41
2023-07-10T16:50:22.124Z,27.77
2023-07-10T16:52:51.808Z,27.81
2023-07-10T16:55:27.137Z,27.79
2023-07-10T16:57:55.724Z,27.94
2023-07-10T17:00:30.400Z,28.23
2023-07-10T17:03:02.601Z,27.75
2023-07-10T17:05:41.588Z,28.08
2023-07-10T17:08:20.371Z,28.32
2023-07-10T17:10:48.001Z,28.13
2023-07-10T17:13:21.930Z,28.10
2023-07-10T17:16:32.648Z,28.28
2023-07-10T17:18:58.807Z,28.14
2023-07-10T17:21:28.002Z,28.28
2023-07-10T17:23:55.038Z,28.49
2023-07-10T17:26:22.490Z,28.04
2023-07-10T17:28:49.681Z,28.22
2023-07-10T17:31:32.390Z,28.20
2023-07-10T17:34:03.613Z,27.87
2023-07-10T17:36:30.961Z,28.20
2023-07-10T17:39:09.162Z,28.32
2023-07-10T17:41:43.563Z,28.70
2023-07-10T17:44:19.187Z,28.66
2023-07-10T17:46:47.379Z,28.36
2023-07-10T17:49:15.619Z,28.75
2023-07-10T17:51:42.447Z,28.91
2023-07-10T17:54:18.238Z,29.04
2023-07-10T17:56:46.842Z,29.49
2023-07-10T17:59:14.515Z,28.75
2023-07-10T18:01:43.231Z,28.66
2023-07-10T18:04:16.959Z,28.80
2023-07-10T18:06:45.058Z,28.89
2023-07-10T18:09:28.145Z,29.26
2023-07-10T18:11:56.734Z,29.00
2023-07-10T18:14:23.839Z,29.47
2023-07-10T18:16:51.640Z,29.31
2023-07-10T18:19:19.842Z,29.94
2023-07-10T18:21:52.764Z,30.04
2023-07-10T18:24:24.395Z,30.63
2023-07-10T18:26:52.499Z,31.01
2023-07-10T18:29:19.119Z,31.51
2023-07-10T18:31:47.915Z,31.54
2023-07-10T18:34:19.127Z,31.74
2023-07-10T18:36:46.317Z,31.31
2023-07-10T18:39:16.384Z,31.68
2023-07-10T18:41:44.653Z,31.49
2023-07-10T18:44:17.057Z,31.73
2023-07-10T18:46:47.632Z,31.54
2023-07-10T18:49:20.526Z,31.89
2023-07-10T18:51:49.139Z,31.76
2023-07-10T18:54:19.373Z,31.97
2023-07-10T18:56:46.348Z,32.36
2023-07-10T18:59:21.332Z,32.87
2023-07-10T19:01:52.821Z,33.50
2023-07-10T19:04:21.231Z,34.14
2023-07-10T19:06:51.540Z,34.14
2023-07-10T19:09:20.095Z,34.30
2023-07-10T19:11:47.417Z,34.36
2023-07-10T19:14:23.396Z,35.85
2023-07-10T19:16:52.001Z,36.80
2023-07-10T19:19:23.322Z,36.66
2023-07-10T19:21:53.167Z,36.89
2023-07-10T19:24:23.016Z,36.75
2023-07-10T19:26:49.832Z,38.38
2023-07-10T19:29:17.921Z,37.71
2023-07-10T19:32:00.650Z,38.80
2023-07-10T19:34:28.722Z,38.87
2023-07-10T19:36:55.562Z,38.70
2023-07-10T19:39:26.018Z,38.80
2023-07-10T19:41:52.969Z,38.83
2023-07-10T19:44:23.555Z,38.64
2023-07-10T19:46:50.922Z,38.40
2023-07-10T19:49:24.966Z,38.17
2023-07-10T19:51:51.589Z,38.27
2023-07-10T19:54:24.837Z,38.77
2023-07-10T19:56:51.943Z,38.75
2023-07-10T19:59:21.101Z,39.12
2023-07-10T20:01:51.360Z,39.92
2023-07-10T20:04:18.292Z,39.49
2023-07-10T20:06:48.746Z,39.99
2023-07-10T20:09:19.436Z,39.83
2023-07-10T20:11:47.520Z,39.95
2023-07-10T20:14:18.575Z,40.59
2023-07-10T20:17:01.123Z,41.30
2023-07-10T20:19:30.864Z,41.65
2023-07-10T20:21:57.630Z,41.76
2023-07-10T20:24:27.301Z,42.72
2023-07-10T20:26:54.413Z,43.15
2023-07-10T20:29:22.190Z,43.60
2023-07-10T20:31:49.518Z,42.82
2023-07-10T20:34:17.660Z,44.13
2023-07-10T20:36:45.772Z,42.61
2023-07-10T20:39:15.305Z,43.21
2023-07-10T20:41:43.635Z,43.09
2023-07-10T20:44:18.830Z,42.67
2023-07-10T20:46:53.513Z,42.36
2023-07-10T20:49:22.425Z,41.76
2023-07-10T20:51:49.360Z,42.84
2023-07-10T20:54:22.104Z,43.29
2023-07-10T20:56:52.234Z,43.55
2023-07-10T20:59:29.193Z,43.49
2023-07-10T21:01:57.119Z,44.22
2023-07-10T21:04:23.880Z,45.43
2023-07-10T21:07:02.516Z,47.31
2023-07-10T21:09:29.095Z,48.20
2023-07-10T21:11:55.829Z,48.71
2023-07-10T21:14:22.482Z,48.21
2023-07-10T21:16:49.747Z,47.31
2023-07-10T21:19:21.668Z,47.60
2023-07-10T21:21:49.517Z,47.29
2023-07-10T21:24:17.904Z,46.93
2023-07-10T21:26:51.731Z,46.69
2023-07-10T21:29:19.847Z,46.69
2023-07-10T21:31:48.411Z,46.37
2023-07-10T21:34:15.424Z,47.03
2023-07-10T21:36:43.841Z,48.45
2023-07-10T21:39:10.683Z,48.74
2023-07-10T21:41:40.859Z,47.85
2023-07-10T21:44:13.184Z,47.35
2023-07-10T21:46:41.266Z,47.67
2023-07-10T21:49:13.785Z,48.57
2023-07-10T21:51:42.144Z,48.50
2023-07-10T21:54:11.608Z,48.28
2023-07-10T21:56:41.324Z,48.30
2023-07-10T21:59:20.808Z,48.26
2023-07-10T22:01:47.961Z,47.69
2023-07-10T22:04:14.947Z,47.75
2023-07-10T22:06:46.498Z,47.99
2023-07-10T22:09:14.825Z,47.89
2023-07-10T22:11:43.362Z,48.40
2023-07-10T22:14:18.494Z,48.44
2023-07-10T22:16:45.962Z,48.04
2023-07-10T22:19:14.160Z,48.32
2023-07-10T22:21:42.603Z,48.56
2023-07-10T22:24:20.167Z,48.37
2023-07-10T22:26:47.200Z,48.57
2023-07-10T22:29:14.069Z,48.42
2023-07-10T22:31:41.163Z,48.91
2023-07-10T22:34:08.379Z,49.96
2023-07-10T22:36:35.077Z,49.79
2023-07-10T22:39:02.083Z,49.59
2023-07-10T22:41:33.325Z,49.65
2023-07-10T22:44:05.328Z,50.15
2023-07-10T22:46:35.164Z,50.06
2023-07-10T22:49:05.327Z,49.99
2023-07-10T22:51:35.941Z,49.99
2023-07-10T22:54:04.803Z,50.04
2023-07-10T22:56:37.451Z,50.52
2023-07-10T22:59:04.624Z,50.49
2023-07-10T23:01:32.999Z,50.67
2023-07-10T23:04:01.116Z,50.62
2023-07-10T23:06:32.941Z,50.67
2023-07-10T23:09:00.069Z,50.42
2023-07-10T23:11:27.374Z,51.09
2023-07-10T23:13:54.191Z,51.27
2023-07-10T23:16:25.096Z,50.97
2023-07-10T23:18:56.113Z,50.96
2023-07-10T23:21:24.046Z,51.27
2023-07-10T23:23:51.171Z,51.66
2023-07-10T23:26:23.541Z,53.76
2023-07-10T23:28:51.099Z,53.84
2023-07-10T23:31:22.081Z,53.59
2023-07-10T23:33:52.498Z,54.16
2023-07-10T23:36:21.069Z,53.81
2023-07-10T23:38:48.374Z,53.73
2023-07-10T23:41:15.810Z,53.63
2023-07-10T23:43:42.606Z,53.49
2023-07-10T23:46:09.781Z,52.79
2023-07-10T23:48:36.863Z,53.16
2023-07-10T23:51:03.985Z,53.28
2023-07-10T23:53:31.030Z,53.66
2023-07-10T23:55:58.467Z,53.74
2023-07-10T23:58:28.174Z,53.56
